NEODyS-2

Near Earth Objects - Dynamic Site
NEODyS ∴ Observatories ∴ Site 691 ∴ Obs & residuals
Contact »
691  ▹ 
OBSERVATIONS AND RESIDUALS

691-Steward Observatory, Kitt Peak-Spacewatch

Detections | Residuals | Detections & Residuals

[1-200] [201-400] [401-600] [601-800] [801-1000] [1001-1200] [1201-1400] [1401-1600] [1601-1800] [1801-2000] [2001-2200] [2201-2400] [2401-2600] [2601-2800] [2801-3000] [3001-3200] [3201-3400] [3401-3600] [3601-3800] [3801-4000] [4001-4200] [4201-4400] [4401-4600] [4601-4800] [4801-5000] [5001-5200] [5201-5400] [5401-5600] [5601-5800] [5801-6000] [6001-6200] [6201-6400] [6401-6600] [6601-6800] [6801-7000] [7001-7200] [7201-7400] [7401-7600] [7601-7800] [7801-8000] [8001-8200] [8201-8400] [8401-8600] [8601-8800] [8801-9000] [9001-9200] [9201-9400] [9401-9600] [9601-9800] [9801-10000] [10001-10200] [10201-10400] [10401-10600] [10601-10800] [10801-11000] [11001-11200] [11201-11400] [11401-11600] [11601-11800] [11801-12000] [12001-12200] [12201-12400] [12401-12600] [12601-12800] [12801-13000] [13001-13200] [13201-13400] [13401-13600] [13601-13800] [13801-14000] [14001-14200] [14201-14400] [14401-14600] [14601-14800] [14801-15000] [15001-15200] [15201-15400] [15401-15600] [15601-15800] [15801-16000] [16001-16200] [16201-16400] [16401-16600] [16601-16800] [16801-17000] [17001-17200] [17201-17400] [17401-17600] [17601-17800] [17801-18000] [18001-18200] [18201-18400] [18401-18600] [18601-18800] [18801-19000] [19001-19200] [19201-19400] [19401-19600] [19601-19800] [19801-20000] [20001-20200] [20201-20400] [20401-20600] [20601-20800] [20801-21000] [21001-21200] [21201-21400] [21401-21600] [21601-21800] [21801-22000] [22001-22200] [22201-22400] [22401-22600] [22601-22800] [22801-23000] [23001-23200] [23201-23400] [23401-23600] [23601-23800] [23801-24000] [24001-24200] [24201-24400] [24401-24600] [24601-24800] [24801-25000] [25001-25200] [25201-25400] [25401-25600] [25601-25800] [25801-26000] [26001-26200] [26201-26400] [26401-26600] [26601-26800] [26801-27000] [27001-27200] [27201-27400] [27401-27600] [27601-27800] [27801-28000] [28001-28200] [28201-28400] [28401-28600] [28601-28800] [28801-29000] [29001-29200] [29201-29400] [29401-29600] [29601-29800] [29801-30000] [30001-30200] [30201-30400] [30401-30600] [30601-30800] [30801-31000] [31001-31200] [31201-31400] [31401-31600] [31601-31800] [31801-32000] [32001-32200] [32201-32400] [32401-32600] [32601-32800] [32801-33000] [33001-33200] [33201-33400] [33401-33600] [33601-33800] [33801-34000] [34001-34200] [34201-34400] [34401-34600] [34601-34800] [34801-35000] [35001-35200] [35201-35400] [35401-35600] [35601-35800] [35801-36000] [36001-36200] [36201-36400] [36401-36600] [36601-36800] [36801-37000] [37001-37200] [37201-37400] [37401-37600] [37601-37800] [37801-38000] [38001-38200] [38201-38400] [38401-38600] [38601-38800] [38801-39000] [39001-39200] [39201-39400] [39401-39600] [39601-39800] [39801-40000] [40001-40200] [40201-40400] [40401-40600] [40601-40800] [40801-41000] [41001-41200] [41201-41400] [41401-41600] [41601-41800] [41801-42000] [42001-42200] [42201-42400] [42401-42600] [42601-42800] [42801-43000] [43001-43200] [43201-43400] [43401-43600] [43601-43800] [43801-44000] [44001-44200] [44201-44400] [44401-44600] [44601-44800] [44801-45000] [45001-45200] [45201-45400] [45401-45600] [45601-45800] [45801-46000] [46001-46200] [46201-46400] [46401-46600] [46601-46800] [46801-47000] [47001-47200] [47201-47400] [47401-47600] [47601-47800] [47801-48000] [48001-48200] [48201-48400] [48401-48600] [48601-48800] [48801-49000] [49001-49200] [49201-49400] [49401-49600] [49601-49800] [49801-50000] [50001-50200] [50201-50388]

Designation T Tech N Date Right Ascension Declination Apparent Magnitude Star Catalog Site code χ Used A Used M
yr-mo-day precision hr:min:sec precision rms F bias residual deg min sec precision rms F bias residual mag/col rms residual
2000CE59 O C H 2017-02-02.24640 1.000E-05 10:55:57.690 1.500E-01 0.500 F 0.142 -0.119 +05° 51' 34.90" 1.000E-01 0.500 F 0.110 0.012 18.7 R 0.70 -0.03 o 691 0.24 Yes Yes
2016WP48 O C H 2017-02-02.24910 1.000E-05 10:05:24.150 1.500E-01 0.500 F 0.135 -0.326 +24° 12' 16.00" 1.000E-01 0.500 F 0.310 -0.186 20.6 R 0.70 -0.11 o 691 0.76 Yes Yes
2000CE59 O C H 2017-02-02.25477 1.000E-05 10:55:56.710 1.500E-01 0.500 F 0.142 -0.073 +05° 51' 18.80" 1.000E-01 0.500 F 0.110 0.186 18.7 R 0.70 -0.03 o 691 0.40 Yes Yes
2016WP48 O C H 2017-02-02.25746 1.000E-05 10:05:24.070 1.500E-01 0.500 F 0.135 -0.460 +24° 12' 07.40" 1.000E-01 0.500 F 0.310 0.266 20.9 R 0.70 0.19 o 691 1.08 Yes Yes
2000CE59 O C H 2017-02-02.26313 1.000E-05 10:55:55.740 1.500E-01 0.500 F 0.142 0.172 +05° 51' 02.20" 1.000E-01 0.500 F 0.110 -0.152 19.0 R 0.70 0.27 o 691 0.46 Yes Yes
2016WP48 O C H 2017-02-02.26583 1.000E-05 10:05:24.040 1.500E-01 0.500 F 0.135 0.152 +24° 11' 57.90" 1.000E-01 0.500 F 0.310 -0.142 20.6 R 0.70 -0.11 o 691 0.42 Yes Yes
2001CP44 O C 2017-02-02.27598 1.000E-05 09:20:29.290 1.500E-01 0.500 F 0.153 -0.146 +29° 52' 44.60" 1.000E-01 0.500 F 0.325 -0.058 19.1 V 0.70 0.16 o 691 0.31 Yes Yes
2003EZ16 O C H 2017-02-02.28022 1.000E-05 11:09:51.790 1.500E-01 0.500 F 0.143 -1.960 +23° 39' 53.50" 1.000E-01 0.500 F 0.114 -0.285 20.6 R 0.70 0.70 o 691 3.86 No Yes
2001CP44 O C 2017-02-02.28747 1.000E-05 09:20:28.590 1.500E-01 0.500 F 0.153 -0.158 +29° 52' 49.20" 1.000E-01 0.500 F 0.325 0.107 19.1 V 0.70 0.16 o 691 0.38 Yes Yes
2003EZ16 O C H 2017-02-02.29170 1.000E-05 11:09:49.700 1.500E-01 0.500 F 0.143 -0.408 +23° 39' 43.90" 1.000E-01 0.500 F 0.114 -0.209 20.2 R 0.70 0.30 o 691 0.94 Yes Yes
2001CP44 O C 2017-02-02.29896 1.000E-05 09:20:27.900 1.500E-01 0.500 F 0.153 -0.035 +29° 52' 53.40" 1.000E-01 0.500 F 0.325 -0.120 19.1 V 0.70 0.16 o 691 0.25 Yes Yes
2003EZ16 O C H 2017-02-02.30322 1.000E-05 11:09:47.520 1.500E-01 0.500 F 0.143 0.175 +23° 39' 34.30" 1.000E-01 0.500 F 0.114 -0.027 20.1 R 0.70 0.20 o 691 0.36 Yes Yes
2017BU31 O C 2017-02-02.31273 1.000E-05 09:43:35.660 1.500E-01 0.500 F 0.009 -0.077 -00° 16' 53.90" 1.000E-01 0.500 F 0.254 -0.200 20.3 V 0.70 0.20 o 691 0.43 Yes Yes
2017BU31 O C 2017-02-02.32090 1.000E-05 09:43:35.470 1.500E-01 0.500 F 0.009 -0.191 -00° 17' 04.10" 1.000E-01 0.500 F 0.254 -0.158 20.5 V 0.70 0.40 o 691 0.50 Yes Yes
2017BU31 O C 2017-02-02.32907 1.000E-05 09:43:35.280 1.500E-01 0.500 F 0.009 -0.295 -00° 17' 14.10" 1.000E-01 0.500 F 0.254 0.083 20.4 V 0.70 0.30 o 691 0.61 Yes Yes
2004AY1 O C H 2017-02-02.35462 1.000E-05 11:00:17.100 1.500E-01 0.500 F 0.023 -0.289 +25° 49' 24.20" 1.000E-01 0.500 F 0.133 0.423 20.9 R 0.70 0.46 o 691 1.03 Yes Yes
2004AY1 O C H 2017-02-02.36060 1.000E-05 11:00:15.990 1.500E-01 0.500 F 0.023 -0.255 +25° 49' 27.20" 1.000E-01 0.500 F 0.133 0.494 21.0 R 0.70 0.56 o 691 1.12 Yes Yes
2017BP31 O C H 2017-02-02.36900 1.000E-05 12:41:41.880 1.500E-01 0.500 F 0.233 -0.144 +00° 45' 00.30" 1.000E-01 0.500 F 0.250 0.146 19.7 R 0.70 0.07 o 691 0.41 Yes Yes
2017BP31 O C H 2017-02-02.37604 1.000E-05 12:41:43.660 1.500E-01 0.500 F 0.233 -0.845 +00° 44' 52.70" 1.000E-01 0.500 F 0.250 1.499 o 691 3.44 No No
2017BP31 O C H 2017-02-02.38312 1.000E-05 12:41:45.600 1.500E-01 0.500 F 0.233 0.708 +00° 44' 42.80" 1.000E-01 0.500 F 0.250 0.608 19.6 R 0.70 -0.03 o 691 1.87 Yes Yes
2016QC84 O C 2017-02-02.39349 1.000E-05 13:53:13.710 1.500E-01 0.500 F 0.216 -0.365 +22° 47' 34.90" 1.000E-01 0.500 F 0.177 -0.104 19.7 V 0.70 -0.06 o 691 0.76 Yes Yes
2016YF11 O C 2017-02-02.39604 1.000E-05 14:42:16.940 1.500E-01 0.500 F 0.125 -0.407 +25° 02' 10.10" 1.000E-01 0.500 F 0.271 -0.881 19.4 V 0.70 -0.24 o 691 1.96 Yes Yes
2016QC84 O C 2017-02-02.40151 1.000E-05 13:53:12.210 1.500E-01 0.500 F 0.216 0.020 +22° 47' 23.70" 1.000E-01 0.500 F 0.177 -0.007 19.9 V 0.70 0.14 o 691 0.04 Yes Yes
2016YF11 O C 2017-02-02.40401 1.000E-05 14:42:19.580 1.500E-01 0.500 F 0.125 0.376 +25° 02' 32.50" 1.000E-01 0.500 F 0.271 0.413 19.6 V 0.70 -0.04 o 691 1.13 Yes Yes
2016QC84 O C 2017-02-02.40946 1.000E-05 13:53:10.640 1.500E-01 0.500 F 0.216 -0.702 +22° 47' 13.00" 1.000E-01 0.500 F 0.177 0.510 19.6 V 0.70 -0.16 o 691 1.74 Yes Yes
2016YF11 O C 2017-02-02.41197 1.000E-05 14:42:22.110 1.500E-01 0.500 F 0.125 -0.199 +25° 02' 52.70" 1.000E-01 0.500 F 0.271 -0.433 19.5 V 0.70 -0.15 o 691 0.96 Yes Yes
2016VV3 O C H 2017-02-02.41803 1.000E-05 13:37:59.330 1.500E-01 0.500 F 0.187 0.143 +00° 40' 31.10" 1.000E-01 0.500 F 0.186 -0.082 20.5 R 0.70 -0.01 o 691 0.33 Yes Yes
2017BO31 O C H 2017-02-02.42098 1.000E-05 12:54:54.120 1.500E-01 0.500 F 0.119 0.340 +04° 28' 28.30" 1.000E-01 0.500 F 0.249 -0.205 21.5 R 0.70 0.34 o 691 0.80 Yes Yes
2016VV3 O C H 2017-02-02.42562 1.000E-05 13:37:59.650 1.500E-01 0.500 F 0.187 -0.194 +00° 40' 30.80" 1.000E-01 0.500 F 0.186 0.043 20.6 R 0.70 0.09 o 691 0.40 Yes Yes
2017BO31 O C H 2017-02-02.42858 1.000E-05 12:54:53.240 1.500E-01 0.500 F 0.119 -0.749 +04° 28' 33.70" 1.000E-01 0.500 F 0.249 0.411 21.3 R 0.70 0.14 o 691 1.71 Yes Yes
2016VV3 O C H 2017-02-02.43341 1.000E-05 13:37:59.990 1.500E-01 0.500 F 0.187 -0.348 +00° 40' 30.50" 1.000E-01 0.500 F 0.186 0.179 20.9 R 0.70 0.39 o 691 0.78 Yes Yes
2017BO31 O C H 2017-02-02.43636 1.000E-05 12:54:52.460 1.500E-01 0.500 F 0.119 -0.046 +04° 28' 38.90" 1.000E-01 0.500 F 0.249 0.714 21.6 R 0.70 0.44 o 691 1.43 Yes Yes
2016LE9 O C H 2017-02-02.44234 1.000E-05 12:52:18.120 1.500E-01 0.500 F 0.272 -0.286 -22° 32' 46.70" 1.000E-01 0.500 F -0.021 -0.410 20.6 R 0.70 -0.09 o 691 1.00 Yes Yes
2016LE9 O C H 2017-02-02.45051 1.000E-05 12:52:17.740 1.500E-01 0.500 F 0.272 0.031 -22° 32' 45.40" 1.000E-01 0.500 F -0.021 0.147 20.5 R 0.70 -0.19 o 691 0.30 Yes Yes
2016LE9 O C H 2017-02-02.45869 1.000E-05 12:52:17.340 1.500E-01 0.500 F 0.272 0.083 -22° 32' 44.80" 1.000E-01 0.500 F -0.021 -0.003 o 691 0.17 Yes No
2017BL30 O C H 2017-02-04.16167 1.000E-05 08:46:41.120 1.500E-01 0.500 F -0.002 0.019 +16° 28' 27.70" 1.000E-01 0.500 F 0.158 -0.093 19.5 R 0.70 0.39 o 691 0.19 Yes Yes
2017BL32 O C H 2017-02-04.16780 1.000E-05 08:41:59.170 1.500E-01 0.500 F 0.085 -0.249 -02° 33' 51.40" 1.000E-01 0.500 F 0.041 0.646 20.4 R 0.70 0.49 o 691 1.40 Yes Yes
2017BL30 O C H 2017-02-04.17041 1.000E-05 08:46:39.020 1.500E-01 0.500 F -0.002 -0.067 +16° 28' 23.30" 1.000E-01 0.500 F 0.158 -0.108 19.7 R 0.70 0.59 o 691 0.25 Yes Yes
2017BL32 O C H 2017-02-04.17655 1.000E-05 08:41:56.870 1.500E-01 0.500 F 0.085 -0.025 -02° 34' 00.00" 1.000E-01 0.500 F 0.041 -0.685 o 691 1.38 Yes No
2017BL30 O C H 2017-02-04.17914 1.000E-05 08:46:36.890 1.500E-01 0.500 F -0.002 -0.474 +16° 28' 18.60" 1.000E-01 0.500 F 0.158 -0.390 19.5 R 0.70 0.39 o 691 1.23 Yes Yes
2017BL32 O C H 2017-02-04.18528 1.000E-05 08:41:54.510 1.500E-01 0.500 F 0.085 -0.732 -02° 34' 06.80" 1.000E-01 0.500 F 0.041 -0.235 20.3 R 0.70 0.39 o 691 1.55 Yes Yes
2017BL30 O C 2017-02-05.17232 1.000E-05 08:42:49.770 1.500E-01 0.500 F -0.022 -0.986 +16° 18' 17.00" 1.000E-01 0.500 F 0.090 -0.236 o 691 2.03 Yes No
2017BL30 O C 2017-02-05.17528 1.000E-05 08:42:49.040 1.500E-01 0.500 F -0.022 -0.711 +16° 18' 15.30" 1.000E-01 0.500 F 0.090 -0.285 o 691 1.53 Yes No
2017BL30 O C 2017-02-05.17824 1.000E-05 08:42:48.300 1.500E-01 0.500 F -0.022 -0.564 +16° 18' 13.90" 1.000E-01 0.500 F 0.090 -0.029 o 691 1.13 Yes No
2017BM123 O C H 2017-02-05.32025 1.000E-05 10:02:53.380 1.500E-01 0.500 F -0.023 -0.699 -05° 31' 39.20" 1.000E-01 0.500 F 0.019 -0.206 19.8 R 0.70 -0.40 o 691 1.46 Yes Yes
2017CS O C H 2017-02-05.32422 1.000E-05 10:44:27.120 1.500E-01 0.500 F 0.107 -0.093 -09° 06' 30.30" 1.000E-01 0.500 F 0.017 0.009 o 691 0.19 Yes No
2017BM123 O C H 2017-02-05.33841 1.000E-05 10:02:55.560 1.500E-01 0.500 F -0.023 0.467 -05° 31' 23.90" 1.000E-01 0.500 F 0.019 0.382 o 691 1.21 Yes No
2017CS O C H 2017-02-05.34238 1.000E-05 10:44:26.760 1.500E-01 0.500 F 0.107 0.086 -09° 06' 42.90" 1.000E-01 0.500 F 0.017 -0.353 o 691 0.73 Yes No
2017BM123 O C H 2017-02-05.35825 1.000E-05 10:02:57.850 1.500E-01 0.500 F -0.023 0.399 -05° 31' 08.00" 1.000E-01 0.500 F 0.019 0.073 o 691 0.81 Yes No
2017CS O C H 2017-02-05.36255 1.000E-05 10:44:26.330 1.500E-01 0.500 F 0.107 -0.112 -09° 06' 55.70" 1.000E-01 0.500 F 0.017 0.412 o 691 0.85 Yes No
2015FJ36 O C H 2017-02-14.12624 1.000E-05 04:39:19.230 1.500E-01 0.500 F -0.124 -0.017 +07° 09' 38.20" 1.000E-01 0.500 F 0.368 -0.432 20.2 R 0.70 0.20 o 691 0.88 Yes Yes
2015FJ36 O C H 2017-02-14.13418 1.000E-05 04:39:23.960 1.500E-01 0.500 F -0.124 -0.348 +07° 09' 45.80" 1.000E-01 0.500 F 0.368 0.043 20.6 R 0.70 0.60 o 691 0.71 Yes Yes
2015FJ36 O C H 2017-02-14.14212 1.000E-05 04:39:28.800 1.500E-01 0.500 F -0.124 0.962 +07° 09' 52.90" 1.000E-01 0.500 F 0.368 0.039 20.5 R 0.70 0.50 o 691 1.96 Yes Yes
2017CJ1 O C H 2017-02-14.15416 1.000E-05 05:11:53.800 1.500E-01 0.500 F -0.080 0.865 -09° 51' 12.10" 1.000E-01 0.500 F 0.113 0.464 20.1 R 0.70 -0.08 o 691 1.99 Yes Yes
2017CJ1 O C H 2017-02-14.16792 1.000E-05 05:11:56.450 1.500E-01 0.500 F -0.080 -0.685 -09° 50' 38.60" 1.000E-01 0.500 F 0.113 -1.160 o 691 2.73 Yes No
2017CJ1 O C H 2017-02-14.18165 1.000E-05 05:11:59.410 1.500E-01 0.500 F -0.080 2.429 -09° 50' 01.40" 1.000E-01 0.500 F 0.113 0.994 20.6 R 0.70 0.42 o 691 5.18 No Yes
1997XR2 O C K 2017-02-16.16642 1.000E-05 05:23:23.370 1.500E-01 0.500 F 0.001 0.346 +07° 28' 32.80" 1.000E-01 0.500 F 0.207 -0.260 o 691 0.87 Yes No
1997XR2 O C K 2017-02-16.18913 1.000E-05 05:23:25.490 1.500E-01 0.500 F 0.001 0.129 +07° 28' 42.20" 1.000E-01 0.500 F 0.207 -0.385 o 691 0.81 Yes No
McAuliffe O C 2017-02-16.23731 1.000E-05 03:46:59.020 1.500E-01 0.500 F -0.080 -0.329 +21° 13' 24.70" 1.000E-01 0.500 F 0.243 -0.002 o 691 0.66 Yes No
1992BF O C H 2017-02-16.24084 1.000E-05 03:57:37.790 1.500E-01 0.500 F -0.162 1.258 +24° 31' 29.70" 1.000E-01 0.500 F 0.256 -0.008 o 691 2.52 Yes No
McAuliffe O C 2017-02-16.24751 1.000E-05 03:47:00.990 1.500E-01 0.500 F -0.080 -0.360 +21° 13' 35.70" 1.000E-01 0.500 F 0.243 -0.012 o 691 0.72 Yes No
1992BF O C H 2017-02-16.25105 1.000E-05 03:57:39.230 1.500E-01 0.500 F -0.162 0.652 +24° 31' 24.60" 1.000E-01 0.500 F 0.256 -0.300 o 691 1.44 Yes No
McAuliffe O C 2017-02-16.25772 1.000E-05 03:47:02.980 1.500E-01 0.500 F -0.080 -0.187 +21° 13' 46.70" 1.000E-01 0.500 F 0.243 -0.025 o 691 0.38 Yes No
1992BF O C H 2017-02-16.26125 1.000E-05 03:57:40.720 1.500E-01 0.500 F -0.162 0.693 +24° 31' 19.70" 1.000E-01 0.500 F 0.256 -0.388 o 691 1.59 Yes No
2017AM4 O C H 2017-02-16.27249 1.000E-05 07:32:57.480 1.500E-01 0.500 F -0.094 0.485 +25° 12' 30.00" 1.000E-01 0.500 F 0.263 -0.783 o 691 1.85 Yes No
2017AM4 O C H 2017-02-16.29719 1.000E-05 07:32:54.190 1.500E-01 0.500 F -0.094 -0.065 +25° 13' 27.90" 1.000E-01 0.500 F 0.263 -0.876 20.8 R 0.70 -0.04 o 691 1.76 Yes Yes
2010LN14 O C H 2017-02-16.40470 1.000E-05 08:24:34.420 1.500E-01 0.500 F 0.062 -0.122 +21° 42' 55.90" 1.000E-01 0.500 F 0.244 0.100 18.8 R 0.70 -0.49 o 691 0.32 Yes Yes
2010LN14 O C H 2017-02-16.41934 1.000E-05 08:24:33.160 1.500E-01 0.500 F 0.062 -0.904 +21° 42' 51.40" 1.000E-01 0.500 F 0.244 -0.120 o 691 1.83 Yes No
2010LN14 O C H 2017-02-16.43397 1.000E-05 08:24:32.020 1.500E-01 0.500 F 0.062 -0.250 +21° 42' 47.10" 1.000E-01 0.500 F 0.244 -0.100 19.1 R 0.70 -0.19 o 691 0.54 Yes Yes
2012BB124 O C K 2017-02-16.45099 1.000E-05 12:42:44.000 1.500E-01 0.500 F 0.216 -0.029 +20° 33' 45.70" 1.000E-01 0.500 F 0.206 0.027 19.1 R 0.70 -0.16 o 691 0.08 Yes Yes
2012BB124 O C K 2017-02-16.48164 1.000E-05 12:42:49.200 1.500E-01 0.500 F 0.216 0.040 +20° 36' 05.80" 1.000E-01 0.500 F 0.206 0.132 o 691 0.28 Yes No
2012BB124 O C K 2017-02-16.51209 1.000E-05 12:42:54.410 1.500E-01 0.500 F 0.216 0.315 +20° 38' 24.80" 1.000E-01 0.500 F 0.206 0.317 o 691 0.90 Yes No
2017CN1 O C 2017-02-16.53633 1.000E-05 14:17:42.380 1.500E-01 0.500 F 0.277 -0.094 +10° 02' 56.60" 1.000E-01 0.500 F 0.306 -0.667 o 691 1.35 Yes No
2017CN1 O C 2017-02-16.53790 1.000E-05 14:17:42.810 1.500E-01 0.500 F 0.277 0.068 +10° 02' 56.30" 1.000E-01 0.500 F 0.306 -0.273 o 691 0.56 Yes No
2017CN1 O C 2017-02-16.53947 1.000E-05 14:17:43.190 1.500E-01 0.500 F 0.277 -0.508 +10° 02' 55.60" 1.000E-01 0.500 F 0.306 -0.278 o 691 1.16 Yes No
2004BD68 O C H 2017-02-17.09767 1.000E-05 03:47:55.280 1.500E-01 0.500 F -0.259 -0.563 -25° 34' 20.50" 1.000E-01 0.500 F 0.176 0.111 19.2 R 0.70 0.84 o 691 1.16 Yes Yes
2004BD68 O C H 2017-02-17.09900 1.000E-05 03:47:56.620 1.500E-01 0.500 F -0.259 0.268 -25° 34' 11.90" 1.000E-01 0.500 F 0.176 -0.078 19.1 R 0.70 0.74 o 691 0.57 Yes Yes
2004BD68 O C H 2017-02-17.10029 1.000E-05 03:47:57.820 1.500E-01 0.500 F -0.259 -0.273 -25° 34' 03.50" 1.000E-01 0.500 F 0.176 -0.204 19.2 R 0.70 0.84 o 691 0.69 Yes Yes
2017DE O C H 2017-02-17.33640 1.000E-05 09:58:56.480 1.500E-01 0.500 F 0.091 0.487 +08° 11' 21.20" 1.000E-01 0.500 F 0.076 -0.351 18.1 R 0.70 0.19 o 691 1.21 Yes Yes
2017DE O C H 2017-02-17.33761 1.000E-05 09:58:56.430 1.500E-01 0.500 F 0.091 0.154 +08° 11' 42.70" 1.000E-01 0.500 F 0.076 -0.152 18.1 R 0.70 0.19 o 691 0.44 Yes Yes
2017DE O C H 2017-02-17.33883 1.000E-05 09:58:56.400 1.500E-01 0.500 F 0.091 0.121 +08° 12' 04.50" 1.000E-01 0.500 F 0.076 0.169 18.1 R 0.70 0.19 o 691 0.42 Yes Yes
2009UN3 O C 2017-02-21.12581 1.000E-05 03:08:21.170 1.500E-01 0.500 F -0.265 -0.599 -10° 34' 28.20" 1.000E-01 0.500 F 0.164 -0.125 19.8 V 0.70 -0.18 o 691 1.23 Yes Yes
2012RG3 O C H 2017-02-21.12867 1.000E-05 01:36:39.360 1.500E-01 0.500 F -0.332 0.415 +01° 16' 37.10" 1.000E-01 0.500 F 0.189 -0.205 o 691 0.93 Yes No
2016WF9 O C H 2017-02-21.13147 1.000E-05 03:36:25.310 1.500E-01 0.500 F -0.066 -1.761 +25° 31' 09.10" 1.000E-01 0.500 F 0.225 -1.645 o 691 4.77 No No
2009UN3 O C 2017-02-21.13405 1.000E-05 03:08:22.740 1.500E-01 0.500 F -0.265 -0.529 -10° 33' 51.80" 1.000E-01 0.500 F 0.164 0.022 20.2 V 0.70 0.22 o 691 1.06 Yes Yes
2012RG3 O C H 2017-02-21.13659 1.000E-05 01:36:40.450 1.500E-01 0.500 F -0.332 -0.674 +01° 16' 50.70" 1.000E-01 0.500 F 0.189 0.301 o 691 1.48 Yes No
2016WF9 O C H 2017-02-21.13927 1.000E-05 03:36:28.260 1.500E-01 0.500 F -0.066 -0.113 +25° 31' 47.70" 1.000E-01 0.500 F 0.225 -0.214 o 691 0.49 Yes No
2009UN3 O C 2017-02-21.14184 1.000E-05 03:08:24.240 1.500E-01 0.500 F -0.265 -0.252 -10° 33' 17.60" 1.000E-01 0.500 F 0.164 -0.060 20.2 V 0.70 0.23 o 691 0.52 Yes Yes
2012RG3 O C H 2017-02-21.14440 1.000E-05 01:36:41.630 1.500E-01 0.500 F -0.332 -0.186 +01° 17' 03.00" 1.000E-01 0.500 F 0.189 -0.312 19.9 R 0.70 -0.23 o 691 0.73 Yes Yes
2016WF9 O C H 2017-02-21.14708 1.000E-05 03:36:31.090 1.500E-01 0.500 F -0.066 -0.179 +25° 32' 24.50" 1.000E-01 0.500 F 0.225 -0.610 o 691 1.28 Yes No
2017BL6 O C H 2017-02-21.16189 1.000E-05 06:01:45.920 1.500E-01 0.500 F -0.167 -0.372 -04° 18' 23.40" 1.000E-01 0.500 F -0.087 0.281 o 691 0.94 Yes No
2016XH2 O C H 2017-02-21.16665 1.000E-05 04:32:37.190 1.500E-01 0.500 F -0.146 0.560 +18° 40' 38.10" 1.000E-01 0.500 F 0.171 -0.084 o 691 1.13 Yes No
2016XH2 O C H 2017-02-21.17620 1.000E-05 04:32:38.170 1.500E-01 0.500 F -0.146 -1.447 +18° 40' 40.50" 1.000E-01 0.500 F 0.171 0.150 o 691 2.91 Yes No
2017BL6 O C H 2017-02-21.18097 1.000E-05 06:01:45.810 1.500E-01 0.500 F -0.167 0.178 -04° 18' 34.50" 1.000E-01 0.500 F -0.087 0.338 o 691 0.77 Yes No
2016XD1 O C H 2017-02-21.20393 1.000E-05 05:16:03.100 1.500E-01 0.500 F -0.222 -0.044 +12° 15' 18.90" 1.000E-01 0.500 F 0.234 -0.284 o 691 0.58 Yes No
2016XD1 O C H 2017-02-21.22269 1.000E-05 05:16:05.700 1.500E-01 0.500 F -0.235 0.019 +12° 14' 58.20" 1.000E-01 0.500 F 0.262 0.133 o 691 0.27 Yes No
2017BL30 O C H 2017-02-21.24180 1.000E-05 07:11:43.970 1.500E-01 0.500 F -0.194 0.383 +10° 30' 45.60" 1.000E-01 0.500 F 0.048 -0.870 o 691 1.90 Yes No
2017BN3 O C H 2017-02-21.24350 1.000E-05 08:08:59.780 1.500E-01 0.500 F 0.046 -0.514 +16° 29' 58.70" 1.000E-01 0.500 F 0.105 -0.472 20.1 R 0.70 0.11 o 691 1.47 Yes Yes
2017BL30 O C H 2017-02-21.24857 1.000E-05 07:11:40.620 1.500E-01 0.500 F -0.194 0.286 +10° 30' 31.20" 1.000E-01 0.500 F 0.048 0.001 o 691 0.57 Yes No
2017BN3 O C H 2017-02-21.25018 1.000E-05 08:09:04.510 1.500E-01 0.500 F 0.046 0.295 +16° 30' 12.90" 1.000E-01 0.500 F 0.105 -0.126 20.2 R 0.70 0.21 o 691 0.68 Yes Yes
2017BL30 O C H 2017-02-21.25534 1.000E-05 07:11:37.290 1.500E-01 0.500 F -0.194 0.434 +10° 30' 15.70" 1.000E-01 0.500 F 0.048 -0.193 o 691 0.95 Yes No
2017BN3 O C H 2017-02-21.25690 1.000E-05 08:09:09.110 1.500E-01 0.500 F 0.046 -1.209 +16° 30' 26.50" 1.000E-01 0.500 F 0.105 -0.402 20.0 R 0.70 0.01 o 691 2.72 Yes Yes
2017AM4 O C K 2017-02-21.26387 1.000E-05 07:23:02.790 1.500E-01 0.500 F -0.010 -0.922 +28° 16' 28.70" 1.000E-01 0.500 F 0.158 1.666 o 691 3.80 No No
2017AG5 O C K 2017-02-21.27055 1.000E-05 08:01:22.620 1.500E-01 0.500 F 0.018 -0.133 +25° 52' 27.50" 1.000E-01 0.500 F 0.265 -0.513 20.5 R 0.70 -0.80 o 691 1.06 Yes Yes
2017AG5 O C K 2017-02-21.28149 1.000E-05 08:01:23.220 1.500E-01 0.500 F 0.018 0.555 +25° 52' 23.20" 1.000E-01 0.500 F 0.265 -0.373 20.4 R 0.70 -0.90 o 691 1.34 Yes Yes
2017AM4 O C K 2017-02-21.28494 1.000E-05 07:23:00.430 1.500E-01 0.500 F -0.010 -0.643 +28° 17' 10.20" 1.000E-01 0.500 F 0.158 -0.101 o 691 1.30 Yes No
2017AG5 O C K 2017-02-21.29892 1.000E-05 08:01:24.070 1.500E-01 0.500 F 0.018 0.133 +25° 52' 16.00" 1.000E-01 0.500 F 0.265 -0.406 20.8 R 0.70 -0.50 o 691 0.86 Yes Yes
2017AM4 O C K 2017-02-21.30763 1.000E-05 07:22:57.910 1.500E-01 0.500 F 0.011 -0.188 +28° 17' 57.40" 1.000E-01 0.500 F 0.180 0.574 o 691 1.21 Yes No
2017DS15 O C K 2017-02-21.32829 1.000E-05 09:06:26.020 1.500E-01 0.500 F 0.090 0.668 +19° 03' 42.40" 1.000E-01 0.500 F 0.184 0.183 o 691 1.46 Yes No
2017DS15 O C K 2017-02-21.33793 1.000E-05 09:06:28.740 1.500E-01 0.500 F 0.090 -0.191 +19° 03' 11.40" 1.000E-01 0.500 F 0.184 0.250 20.5 R 0.70 -0.41 o 691 0.65 Yes Yes
2017DS15 O C K 2017-02-21.34745 1.000E-05 09:06:31.370 1.500E-01 0.500 F 0.090 -1.871 +19° 02' 41.30" 1.000E-01 0.500 F 0.184 0.852 o 691 3.91 No No
2017BL123 O C K 2017-02-21.35914 1.000E-05 10:29:56.470 1.500E-01 0.500 F 0.183 -1.017 -06° 44' 25.60" 1.000E-01 0.500 F 0.117 -0.575 o 691 2.38 Yes No
2017CS O C H 2017-02-21.36525 1.000E-05 10:35:06.470 1.500E-01 0.500 F -0.006 -0.050 -11° 50' 09.20" 1.000E-01 0.500 F 0.037 -0.042 19.6 R 0.70 -0.23 o 691 0.13 Yes Yes
2017BL123 O C K 2017-02-21.36900 1.000E-05 10:30:00.120 1.500E-01 0.500 F 0.183 0.399 -06° 44' 24.60" 1.000E-01 0.500 F 0.117 0.055 o 691 0.82 Yes No
2017CS O C H 2017-02-21.37510 1.000E-05 10:35:05.890 1.500E-01 0.500 F -0.006 0.090 -11° 50' 14.60" 1.000E-01 0.500 F 0.037 -0.250 19.8 R 0.70 -0.03 o 691 0.53 Yes Yes
2017CS O C H 2017-02-21.38497 1.000E-05 10:35:05.270 1.500E-01 0.500 F -0.006 -0.350 -11° 50' 19.10" 1.000E-01 0.500 F 0.037 0.441 19.9 R 0.70 0.07 o 691 1.13 Yes Yes
2017DR15 O C H 2017-02-21.38804 1.000E-05 11:00:03.420 1.500E-01 0.500 F 0.147 0.015 +23° 30' 17.80" 1.000E-01 0.500 F 0.098 0.020 19.5 R 0.70 0.04 o 691 0.05 Yes Yes
2017DR15 O C H 2017-02-21.39621 1.000E-05 11:00:01.370 1.500E-01 0.500 F 0.147 -0.289 +23° 29' 45.60" 1.000E-01 0.500 F 0.098 -0.227 19.8 R 0.70 0.34 o 691 0.74 Yes Yes
2017DR15 O C H 2017-02-21.40423 1.000E-05 10:59:59.420 1.500E-01 0.500 F 0.147 0.260 +23° 29' 14.60" 1.000E-01 0.500 F 0.098 0.177 19.6 R 0.70 0.14 o 691 0.63 Yes Yes
2017DT15 O C H 2017-02-21.44496 1.000E-05 11:07:28.950 1.500E-01 0.500 F 0.271 -0.310 +22° 01' 43.10" 1.000E-01 0.500 F 0.178 0.185 19.6 R 0.70 0.40 o 691 0.73 Yes Yes
2017DT15 O C H 2017-02-21.45262 1.000E-05 11:07:31.590 1.500E-01 0.500 F 0.271 -0.015 +22° 00' 35.30" 1.000E-01 0.500 F 0.178 -0.011 19.6 R 0.70 0.40 o 691 0.04 Yes Yes
2017DP36 O C H 2017-02-21.46810 1.000E-05 11:39:36.490 1.500E-01 0.500 F 0.030 0.602 +21° 08' 11.30" 1.000E-01 0.500 F 0.250 0.385 20.1 R 0.70 0.42 o 691 1.55 Yes Yes
2017DP36 O C H 2017-02-21.47442 1.000E-05 11:39:41.960 1.500E-01 0.500 F 0.030 0.795 +21° 08' 26.00" 1.000E-01 0.500 F 0.250 0.195 20.1 R 0.70 0.41 o 691 1.80 Yes Yes
2017DP36 O C H 2017-02-21.48081 1.000E-05 11:39:47.360 1.500E-01 0.500 F 0.030 -1.101 +21° 08' 40.00" 1.000E-01 0.500 F 0.250 -0.544 19.9 R 0.70 0.21 o 691 2.72 Yes Yes
2015PQ291 O C H 2017-02-22.08909 1.000E-05 01:54:09.080 1.500E-01 0.500 F 0.075 0.727 -24° 22' 20.30" 1.000E-01 0.500 F 0.354 -0.239 o 691 1.57 Yes No
2015PQ291 O C H 2017-02-22.09135 1.000E-05 01:54:09.640 1.500E-01 0.500 F 0.075 0.709 -24° 22' 22.90" 1.000E-01 0.500 F 0.354 0.221 19.0 R 0.70 -0.07 o 691 1.50 Yes Yes
2016TA56 O C H 2017-02-22.09814 1.000E-05 01:48:51.470 1.500E-01 0.500 F -0.094 -0.611 -21° 18' 20.20" 1.000E-01 0.500 F 0.026 0.730 19.6 R 0.70 0.03 o 691 1.95 Yes Yes
2016TA56 O C H 2017-02-22.10039 1.000E-05 01:48:51.500 1.500E-01 0.500 F -0.094 -0.348 -21° 18' 17.50" 1.000E-01 0.500 F 0.026 -0.082 19.7 R 0.70 0.13 o 691 0.81 Yes Yes
2017BS31 O C K 2017-02-22.10339 1.000E-05 04:08:07.680 1.500E-01 0.500 F -0.154 -0.313 +03° 48' 33.00" 1.000E-01 0.500 F 0.164 0.494 o 691 1.34 Yes No
2017BS31 O C K 2017-02-22.11001 1.000E-05 04:08:05.080 1.500E-01 0.500 F -0.154 -0.329 +03° 49' 05.70" 1.000E-01 0.500 F 0.164 0.405 o 691 1.20 Yes No
2006CJ O C H 2017-02-22.14361 1.000E-05 05:12:59.980 1.500E-01 0.500 F -0.185 0.068 +11° 54' 05.00" 1.000E-01 0.500 F 0.269 0.035 19.3 R 0.70 -0.08 o 691 0.15 Yes Yes
2017BL6 O C K 2017-02-22.14683 1.000E-05 06:01:50.850 1.500E-01 0.500 F -0.155 -0.018 -04° 27' 52.90" 1.000E-01 0.500 F -0.096 -0.339 20.4 R 0.70 0.01 o 691 0.68 Yes Yes
2006CJ O C H 2017-02-22.15279 1.000E-05 05:13:01.760 1.500E-01 0.500 F -0.185 0.074 +11° 54' 11.30" 1.000E-01 0.500 F 0.269 -0.126 19.5 R 0.70 0.12 o 691 0.29 Yes Yes
2017BL6 O C K 2017-02-22.15595 1.000E-05 06:01:50.820 1.500E-01 0.500 F -0.155 0.017 -04° 27' 57.40" 1.000E-01 0.500 F -0.096 0.337 20.0 R 0.70 -0.39 o 691 0.68 Yes Yes
2006CJ O C H 2017-02-22.16192 1.000E-05 05:13:03.540 1.500E-01 0.500 F -0.185 0.211 +11° 54' 18.00" 1.000E-01 0.500 F 0.269 0.171 19.3 R 0.70 -0.08 o 691 0.54 Yes Yes
2017BL6 O C K 2017-02-22.16506 1.000E-05 06:01:50.790 1.500E-01 0.500 F -0.155 0.037 -04° 28' 02.90" 1.000E-01 0.500 F -0.096 -0.001 19.8 R 0.70 -0.59 o 691 0.07 Yes Yes
2017BZ6 O C K 2017-02-22.17243 1.000E-05 08:47:08.220 1.500E-01 0.500 F -0.106 0.576 -07° 01' 48.40" 1.000E-01 0.500 F 0.000 0.217 o 691 1.25 Yes No
2017BZ6 O C K 2017-02-22.18526 1.000E-05 08:47:06.840 1.500E-01 0.500 F -0.106 0.062 -07° 02' 14.80" 1.000E-01 0.500 F 0.000 -0.092 o 691 0.22 Yes No
2016YM1 O C H 2017-02-22.24918 1.000E-05 09:49:39.680 1.500E-01 0.500 F 0.163 -0.211 -04° 28' 32.20" 1.000E-01 0.500 F -0.009 0.070 19.1 R 0.70 -0.12 o 691 0.45 Yes Yes
2017DM34 O C K 2017-02-22.25146 1.000E-05 10:12:56.290 1.500E-01 0.500 F 0.141 0.913 +11° 08' 25.50" 1.000E-01 0.500 F 0.151 0.334 o 691 1.95 Yes No
2016YM1 O C H 2017-02-22.25585 1.000E-05 09:49:40.700 1.500E-01 0.500 F 0.163 0.044 -04° 28' 15.30" 1.000E-01 0.500 F -0.009 0.234 19.1 R 0.70 -0.12 o 691 0.48 Yes Yes
2017DM34 O C K 2017-02-22.25810 1.000E-05 10:12:58.390 1.500E-01 0.500 F 0.141 0.476 +11° 08' 40.30" 1.000E-01 0.500 F 0.151 -0.201 o 691 1.04 Yes No
2016YM1 O C H 2017-02-22.26251 1.000E-05 09:49:41.700 1.500E-01 0.500 F 0.163 0.046 -04° 27' 58.60" 1.000E-01 0.500 F -0.009 0.222 18.8 R 0.70 -0.42 o 691 0.46 Yes Yes
2017DM34 O C K 2017-02-22.26477 1.000E-05 10:13:00.560 1.500E-01 0.500 F 0.141 0.964 +11° 08' 56.00" 1.000E-01 0.500 F 0.151 0.117 o 691 1.95 Yes No
2017CS O C H 2017-02-22.26909 1.000E-05 10:34:17.090 1.500E-01 0.500 F -0.007 0.383 -11° 58' 03.30" 1.000E-01 0.500 F 0.068 0.582 19.5 R 0.70 -0.28 o 691 1.39 Yes Yes
2017DK34 O C K 2017-02-22.27126 1.000E-05 10:46:18.500 1.500E-01 0.500 F 0.078 0.355 +12° 39' 01.50" 1.000E-01 0.500 F 0.119 -0.267 o 691 0.90 Yes No
2017CS O C H 2017-02-22.28157 1.000E-05 10:34:16.280 1.500E-01 0.500 F -0.007 -0.157 -11° 58' 10.40" 1.000E-01 0.500 F 0.068 0.035 19.7 R 0.70 -0.08 o 691 0.32 Yes Yes
2017DK34 O C K 2017-02-22.28530 1.000E-05 10:46:13.010 1.500E-01 0.500 F 0.078 -0.064 +12° 37' 37.40" 1.000E-01 0.500 F 0.119 0.221 o 691 0.47 Yes No
2017CS O C H 2017-02-22.29387 1.000E-05 10:34:15.530 1.500E-01 0.500 F -0.007 0.050 -11° 58' 17.00" 1.000E-01 0.500 F 0.068 -0.124 19.8 R 0.70 0.02 o 691 0.27 Yes Yes
2017DQ35 O C K 2017-02-22.30935 1.000E-05 11:08:49.220 1.500E-01 0.500 F 0.143 1.495 +24° 11' 50.20" 1.000E-01 0.500 F 0.114 0.674 o 691 3.24 No No
2017DQ35 O C K 2017-02-22.31966 1.000E-05 11:08:46.000 1.500E-01 0.500 F 0.143 0.214 +24° 11' 23.50" 1.000E-01 0.500 F 0.114 -0.140 o 691 0.52 Yes No
2017DL34 O C K 2017-02-22.33779 1.000E-05 10:48:23.060 1.500E-01 0.500 F 0.099 0.504 +14° 25' 06.00" 1.000E-01 0.500 F 0.135 0.330 o 691 1.23 Yes No
2017DJ16 O C H 2017-02-22.34343 1.000E-05 10:59:14.520 1.500E-01 0.500 F 0.137 0.026 +20° 00' 58.70" 1.000E-01 0.500 F 0.350 0.896 o 691 1.86 Yes No
2017DL34 O C K 2017-02-22.34718 1.000E-05 10:48:22.520 1.500E-01 0.500 F 0.099 0.332 +14° 23' 53.40" 1.000E-01 0.500 F 0.135 -0.656 o 691 1.49 Yes No
2017DJ16 O C H 2017-02-22.35282 1.000E-05 10:59:17.580 1.500E-01 0.500 F 0.137 0.182 +20° 01' 45.20" 1.000E-01 0.500 F 0.350 1.647 o 691 3.20 No No
2017DJ16 O C H 2017-02-22.36224 1.000E-05 10:59:20.630 1.500E-01 0.500 F 0.137 -0.091 +20° 02' 30.20" 1.000E-01 0.500 F 0.350 0.839 o 691 1.75 Yes No
2017DR34 O C K 2017-02-22.36999 1.000E-05 09:59:31.780 1.500E-01 0.500 F 0.068 0.204 +06° 36' 45.10" 1.000E-01 0.500 F 0.175 0.013 o 691 0.43 Yes No
2017DR34 O C K 2017-02-22.38065 1.000E-05 09:59:32.510 1.500E-01 0.500 F 0.068 0.137 +06° 37' 34.70" 1.000E-01 0.500 F 0.175 -0.259 o 691 0.62 Yes No
2017DR34 O C K 2017-02-22.39114 1.000E-05 09:59:33.310 1.500E-01 0.500 F 0.068 0.373 +06° 38' 24.20" 1.000E-01 0.500 F 0.175 -0.019 o 691 0.79 Yes No
2017DS35 O C K 2017-02-22.40188 1.000E-05 12:47:27.340 1.500E-01 0.500 F 0.239 0.551 +01° 13' 04.30" 1.000E-01 0.500 F 0.160 0.027 o 691 1.10 Yes No
2017DS35 O C K 2017-02-22.40917 1.000E-05 12:47:27.940 1.500E-01 0.500 F 0.239 -0.149 +01° 13' 10.50" 1.000E-01 0.500 F 0.160 0.084 o 691 0.34 Yes No
2017DS35 O C K 2017-02-22.41647 1.000E-05 12:47:28.610 1.500E-01 0.500 F 0.239 0.190 +01° 13' 16.60" 1.000E-01 0.500 F 0.160 0.030 o 691 0.39 Yes No
2002DJ5 O C 2017-02-22.42563 1.000E-05 11:12:04.890 1.500E-01 0.500 F 0.179 -0.168 +09° 12' 26.30" 1.000E-01 0.500 F 0.101 0.194 19.5 V 0.70 0.01 o 691 0.52 Yes Yes
2017DP36 O C K 2017-02-22.42779 1.000E-05 11:53:33.030 1.500E-01 0.559 F 0.259 0.353 +21° 45' 45.80" 1.000E-01 0.559 F 0.237 0.940 o 691 1.85 Yes No
2002DJ5 O C 2017-02-22.43341 1.000E-05 11:12:03.820 1.500E-01 0.500 F 0.179 0.074 +09° 12' 29.50" 1.000E-01 0.500 F 0.101 -0.019 19.5 V 0.70 0.01 o 691 0.15 Yes Yes
2017DP36 O C K 2017-02-22.43557 1.000E-05 11:53:37.030 1.500E-01 0.559 F 0.259 1.193 +21° 45' 56.10" 1.000E-01 0.559 F 0.237 -0.007 o 691 2.26 Yes No
2002DJ5 O C 2017-02-22.44120 1.000E-05 11:12:02.720 1.500E-01 0.500 F 0.179 -0.119 +09° 12' 33.10" 1.000E-01 0.500 F 0.101 0.168 19.5 V 0.70 0.01 o 691 0.41 Yes Yes
2017DP36 O C K 2017-02-22.46723 1.000E-05 11:53:53.140 1.500E-01 0.559 F 0.259 0.051 +21° 46' 37.30" 1.000E-01 0.559 F 0.237 -0.418 o 691 0.77 Yes No
2017DP36 O C K 2017-02-22.47065 1.000E-05 11:53:54.880 1.500E-01 0.559 F 0.259 -0.371 +21° 46' 41.40" 1.000E-01 0.559 F 0.237 -0.430 o 691 1.07 Yes No
2017DP36 O C K 2017-02-22.47414 1.000E-05 11:53:56.720 1.500E-01 0.559 F 0.259 0.021 +21° 46' 45.60" 1.000E-01 0.559 F 0.237 -0.354 o 691 0.65 Yes No
2017DW35 O C K 2017-02-22.47756 1.000E-05 11:06:47.930 1.500E-01 0.500 F 0.169 -0.235 +13° 59' 22.70" 1.000E-01 0.500 F 0.294 -0.267 o 691 0.74 Yes No
2017DV34 O C H 2017-02-22.48112 1.000E-05 11:52:23.940 1.500E-01 0.500 F 0.122 0.236 +19° 02' 09.30" 1.000E-01 0.500 F 0.402 0.018 20.2 R 0.70 -0.20 o 691 0.48 Yes Yes
2017DW35 O C K 2017-02-22.48592 1.000E-05 11:06:43.700 1.500E-01 0.500 F 0.169 -0.488 +13° 59' 12.70" 1.000E-01 0.500 F 0.294 -0.563 o 691 1.56 Yes No
2017DV34 O C H 2017-02-22.48948 1.000E-05 11:52:23.980 1.500E-01 0.500 F 0.122 0.208 +19° 02' 52.20" 1.000E-01 0.500 F 0.402 -1.417 o 691 2.88 Yes No
2017DW35 O C K 2017-02-22.49428 1.000E-05 11:06:39.460 1.500E-01 0.500 F 0.169 -0.925 +13° 59' 03.30" 1.000E-01 0.500 F 0.294 -0.238 o 691 2.00 Yes No
2017DV34 O C H 2017-02-22.49784 1.000E-05 11:52:24.010 1.500E-01 0.500 F 0.122 0.000 +19° 03' 37.30" 1.000E-01 0.500 F 0.402 -0.633 o 691 1.27 Yes No
2017DR36 O C K 2017-02-22.50650 1.000E-05 11:54:05.100 1.500E-01 0.500 F 0.162 -0.100 +23° 07' 35.00" 1.000E-01 0.500 F 0.204 0.435 o 691 0.90 Yes No
2017DR36 O C K 2017-02-22.51648 1.000E-05 11:54:03.450 1.500E-01 0.500 F 0.162 -0.474 +23° 07' 38.80" 1.000E-01 0.500 F 0.204 0.037 o 691 0.97 Yes No
2017DR36 O C K 2017-02-22.52645 1.000E-05 11:54:01.870 1.500E-01 0.500 F 0.162 0.066 +23° 07' 42.80" 1.000E-01 0.500 F 0.204 -0.144 o 691 0.32 Yes No
2017DR15 O C H 2017-02-22.53560 1.000E-05 10:55:23.580 1.500E-01 0.500 F 0.172 -0.368 +22° 13' 16.70" 1.000E-01 0.500 F 0.136 -0.180 19.3 R 0.70 -0.04 o 691 0.82 Yes Yes
2017DT15 O C H 2017-02-22.53733 1.000E-05 11:14:16.500 1.500E-01 0.500 F 0.238 0.395 +19° 28' 26.80" 1.000E-01 0.500 F 0.274 0.192 o 691 0.88 Yes No
2017DR15 O C H 2017-02-22.54108 1.000E-05 10:55:22.230 1.500E-01 0.500 F 0.172 -0.023 +22° 12' 53.90" 1.000E-01 0.500 F 0.136 0.052 19.5 R 0.70 0.16 o 691 0.11 Yes Yes
2017DT15 O C H 2017-02-22.54281 1.000E-05 11:14:18.310 1.500E-01 0.500 F 0.238 0.311 +19° 27' 40.80" 1.000E-01 0.500 F 0.274 0.409 o 691 1.03 Yes No
2017DR15 O C H 2017-02-22.54658 1.000E-05 10:55:20.930 1.500E-01 0.500 F 0.172 1.063 +22° 12' 30.20" 1.000E-01 0.500 F 0.136 -0.522 19.5 R 0.70 0.16 o 691 2.38 Yes Yes
2017DR34 O C K 2017-02-23.32606 1.000E-05 10:05:03.410 1.500E-01 0.500 F 0.089 -0.422 +08° 31' 44.00" 1.000E-01 0.500 F 0.047 -0.853 19.7 R 0.70 0.11 o 691 2.14 Yes Yes
2017DR34 O C K 2017-02-23.33030 1.000E-05 10:05:04.540 1.500E-01 0.500 F 0.089 0.047 +08° 32' 30.90" 1.000E-01 0.500 F 0.047 0.322 o 691 0.72 Yes No
2017DR34 O C K 2017-02-23.33455 1.000E-05 10:05:05.670 1.500E-01 0.500 F 0.089 0.332 +08° 33' 17.10" 1.000E-01 0.500 F 0.047 0.549 o 691 1.45 Yes No
2017DL34 O C K 2017-02-23.36249 1.000E-05 10:48:11.990 1.500E-01 0.500 F 0.083 -0.977 +12° 09' 17.00" 1.000E-01 0.500 F 0.137 -0.642 19.6 R 0.70 -0.52 o 691 2.38 Yes Yes
2017DL34 O C K 2017-02-23.36725 1.000E-05 10:48:11.820 1.500E-01 0.500 F 0.083 0.652 +12° 08' 38.50" 1.000E-01 0.500 F 0.137 0.475 o 691 1.64 Yes No
2017DL34 O C K 2017-02-23.37201 1.000E-05 10:48:11.490 1.500E-01 0.500 F 0.083 -0.084 +12° 07' 58.30" 1.000E-01 0.500 F 0.137 -0.073 19.6 R 0.70 -0.52 o 691 0.23 Yes Yes
2017BL31 O C H 2017-02-24.15584 1.000E-05 04:06:33.490 1.500E-01 0.500 F -0.116 -0.668 +22° 15' 59.80" 1.000E-01 0.500 F 0.209 0.207 21.2 R 0.70 -0.21 o 691 1.42 Yes Yes
2016WF9 O C H 2017-02-24.15853 1.000E-05 03:56:04.650 1.500E-01 0.500 F -0.140 0.255 +29° 30' 31.90" 1.000E-01 0.500 F 0.225 -1.064 o 691 2.20 Yes No
2016AU8 O C H 2017-02-24.16126 1.000E-05 04:44:47.930 1.500E-01 0.500 F -0.172 0.445 +19° 55' 26.40" 1.000E-01 0.500 F 0.259 -0.159 20.7 R 0.70 0.29 o 691 0.95 Yes Yes
2017BL31 O C H 2017-02-24.16472 1.000E-05 04:06:33.170 1.500E-01 0.500 F -0.116 0.166 +22° 16' 05.10" 1.000E-01 0.500 F 0.209 0.458 21.8 R 0.70 0.39 o 691 0.98 Yes Yes
2016WF9 O C H 2017-02-24.16740 1.000E-05 03:56:08.220 1.500E-01 0.500 F -0.140 0.430 +29° 31' 14.50" 1.000E-01 0.500 F 0.225 0.531 o 691 1.38 Yes No
2016AU8 O C H 2017-02-24.17006 1.000E-05 04:44:49.380 1.500E-01 0.500 F -0.172 -0.581 +19° 55' 21.70" 1.000E-01 0.500 F 0.259 -0.332 20.4 R 0.70 -0.01 o 691 1.34 Yes Yes
2017BL31 O C H 2017-02-24.17352 1.000E-05 04:06:32.730 1.500E-01 0.500 F -0.116 -0.730 +22° 16' 09.80" 1.000E-01 0.500 F 0.209 0.159 22.2 R 0.70 0.79 o 691 1.52 Yes Yes
2016WF9 O C H 2017-02-24.17621 1.000E-05 03:56:11.800 1.500E-01 0.500 F -0.140 0.991 +29° 31' 56.90" 1.000E-01 0.500 F 0.225 2.233 o 691 4.83 No No
2016AU8 O C H 2017-02-24.17882 1.000E-05 04:44:50.890 1.500E-01 0.500 F -0.172 -0.686 +19° 55' 17.60" 1.000E-01 0.500 F 0.259 0.087 21.0 R 0.70 0.59 o 691 1.38 Yes Yes
2014DP7 O C K 2017-02-24.18201 1.000E-05 05:10:31.250 1.500E-01 0.500 F 0.010 0.455 +00° 14' 53.90" 1.000E-01 0.500 F 0.143 -0.287 20.8 R 0.70 -0.33 o 691 1.16 Yes Yes

[1-200] [201-400] [401-600] [601-800] [801-1000] [1001-1200] [1201-1400] [1401-1600] [1601-1800] [1801-2000] [2001-2200] [2201-2400] [2401-2600] [2601-2800] [2801-3000] [3001-3200] [3201-3400] [3401-3600] [3601-3800] [3801-4000] [4001-4200] [4201-4400] [4401-4600] [4601-4800] [4801-5000] [5001-5200] [5201-5400] [5401-5600] [5601-5800] [5801-6000] [6001-6200] [6201-6400] [6401-6600] [6601-6800] [6801-7000] [7001-7200] [7201-7400] [7401-7600] [7601-7800] [7801-8000] [8001-8200] [8201-8400] [8401-8600] [8601-8800] [8801-9000] [9001-9200] [9201-9400] [9401-9600] [9601-9800] [9801-10000] [10001-10200] [10201-10400] [10401-10600] [10601-10800] [10801-11000] [11001-11200] [11201-11400] [11401-11600] [11601-11800] [11801-12000] [12001-12200] [12201-12400] [12401-12600] [12601-12800] [12801-13000] [13001-13200] [13201-13400] [13401-13600] [13601-13800] [13801-14000] [14001-14200] [14201-14400] [14401-14600] [14601-14800] [14801-15000] [15001-15200] [15201-15400] [15401-15600] [15601-15800] [15801-16000] [16001-16200] [16201-16400] [16401-16600] [16601-16800] [16801-17000] [17001-17200] [17201-17400] [17401-17600] [17601-17800] [17801-18000] [18001-18200] [18201-18400] [18401-18600] [18601-18800] [18801-19000] [19001-19200] [19201-19400] [19401-19600] [19601-19800] [19801-20000] [20001-20200] [20201-20400] [20401-20600] [20601-20800] [20801-21000] [21001-21200] [21201-21400] [21401-21600] [21601-21800] [21801-22000] [22001-22200] [22201-22400] [22401-22600] [22601-22800] [22801-23000] [23001-23200] [23201-23400] [23401-23600] [23601-23800] [23801-24000] [24001-24200] [24201-24400] [24401-24600] [24601-24800] [24801-25000] [25001-25200] [25201-25400] [25401-25600] [25601-25800] [25801-26000] [26001-26200] [26201-26400] [26401-26600] [26601-26800] [26801-27000] [27001-27200] [27201-27400] [27401-27600] [27601-27800] [27801-28000] [28001-28200] [28201-28400] [28401-28600] [28601-28800] [28801-29000] [29001-29200] [29201-29400] [29401-29600] [29601-29800] [29801-30000] [30001-30200] [30201-30400] [30401-30600] [30601-30800] [30801-31000] [31001-31200] [31201-31400] [31401-31600] [31601-31800] [31801-32000] [32001-32200] [32201-32400] [32401-32600] [32601-32800] [32801-33000] [33001-33200] [33201-33400] [33401-33600] [33601-33800] [33801-34000] [34001-34200] [34201-34400] [34401-34600] [34601-34800] [34801-35000] [35001-35200] [35201-35400] [35401-35600] [35601-35800] [35801-36000] [36001-36200] [36201-36400] [36401-36600] [36601-36800] [36801-37000] [37001-37200] [37201-37400] [37401-37600] [37601-37800] [37801-38000] [38001-38200] [38201-38400] [38401-38600] [38601-38800] [38801-39000] [39001-39200] [39201-39400] [39401-39600] [39601-39800] [39801-40000] [40001-40200] [40201-40400] [40401-40600] [40601-40800] [40801-41000] [41001-41200] [41201-41400] [41401-41600] [41601-41800] [41801-42000] [42001-42200] [42201-42400] [42401-42600] [42601-42800] [42801-43000] [43001-43200] [43201-43400] [43401-43600] [43601-43800] [43801-44000] [44001-44200] [44201-44400] [44401-44600] [44601-44800] [44801-45000] [45001-45200] [45201-45400] [45401-45600] [45601-45800] [45801-46000] [46001-46200] [46201-46400] [46401-46600] [46601-46800] [46801-47000] [47001-47200] [47201-47400] [47401-47600] [47601-47800] [47801-48000] [48001-48200] [48201-48400] [48401-48600] [48601-48800] [48801-49000] [49001-49200] [49201-49400] [49401-49600] [49601-49800] [49801-50000] [50001-50200] [50201-50388]